Time;durP1;ratioP1;P1;durP2;ratioP2;P2;SDS_P1;SDS_P2;PMS_P1;PMS_P2;Temp;Humidity;BMP_temperature;BMP_pressure;BME280_temperature;BME280_humidity;BME280_pressure;Samples;Min_cycle;Max_cycle;Signal;HPM_P1;HPM_P2
2022/05/17 00:02:25;;;;;;;10.40;7.40;;;18.80;99.90;;;;;;5060567;28;20402;-81
2022/05/17 00:05:10;;;;;;;6.33;5.73;;;18.80;99.90;;;;;;5076982;28;20557;-81
2022/05/17 00:07:56;;;;;;;8.93;6.27;;;18.80;99.90;;;;;;5078462;28;20398;-80
2022/05/17 00:10:42;;;;;;;8.50;6.00;;;18.70;99.90;;;;;;5079914;28;20479;-81
2022/05/17 00:13:26;;;;;;;9.37;7.27;;;18.70;99.90;;;;;;5079078;28;20477;-80
2022/05/17 00:16:11;;;;;;;9.00;6.00;;;18.70;99.90;;;;;;5064415;28;20890;-82
2022/05/17 00:18:56;;;;;;;9.90;6.43;;;18.60;99.90;;;;;;5075197;28;20397;-82
2022/05/17 00:21:42;;;;;;;7.17;6.27;;;18.60;99.90;;;;;;5075109;28;20470;-81
2022/05/17 00:24:27;;;;;;;7.40;6.70;;;18.60;99.90;;;;;;5081182;28;20514;-81
2022/05/17 00:27:12;;;;;;;16.13;8.20;;;18.60;99.90;;;;;;5093913;28;20404;-82
2022/05/17 00:29:57;;;;;;;7.30;6.10;;;18.60;99.90;;;;;;5093090;28;20421;-81
2022/05/17 00:32:41;;;;;;;6.80;6.10;;;18.60;99.90;;;;;;5093497;28;20384;-81
2022/05/17 00:35:27;;;;;;;12.10;6.20;;;18.60;99.90;;;;;;5094073;28;20400;-82
2022/05/17 00:38:13;;;;;;;9.57;7.53;;;18.50;99.90;;;;;;5064815;28;20401;-81
2022/05/17 00:40:57;;;;;;;7.40;6.70;;;18.40;99.90;;;;;;5091718;28;20411;-81
2022/05/17 00:46:52;;;;;;;9.70;7.10;;;18.50;99.90;;;;;;5080627;28;20416;-81
2022/05/17 00:49:50;;;;;;;11.67;6.93;;;18.40;99.90;;;;;;5093786;28;20386;-82
2022/05/17 00:52:56;;;;;;;9.43;7.93;;;18.40;99.90;;;;;;5093670;28;20386;-81
2022/05/17 00:55:49;;;;;;;11.30;8.40;;;18.40;99.90;;;;;;5093339;28;20480;-82
2022/05/17 00:58:41;;;;;;;12.37;9.60;;;18.40;99.90;;;;;;5093433;28;20451;-82
2022/05/17 01:01:31;;;;;;;10.27;7.33;;;18.40;99.90;;;;;;5078414;28;20846;-81
2022/05/17 01:04:20;;;;;;;7.60;6.50;;;18.30;99.90;;;;;;5093210;28;20517;-81
2022/05/17 01:07:10;;;;;;;10.93;8.10;;;18.30;99.90;;;;;;5077989;28;20377;-82
2022/05/17 01:09:54;;;;;;;7.27;6.67;;;18.30;99.90;;;;;;5093570;28;20385;-81
2022/05/17 01:12:40;;;;;;;13.00;8.80;;;18.30;99.90;;;;;;5032132;28;20399;-81
2022/05/17 01:15:25;;;;;;;9.00;8.10;;;18.30;99.90;;;;;;5031868;28;20754;-79
2022/05/17 01:18:11;;;;;;;8.23;7.43;;;18.30;99.90;;;;;;5031287;28;20388;-82
2022/05/17 01:20:57;;;;;;;10.80;7.50;;;18.30;99.90;;;;;;5031223;28;20632;-81
2022/05/17 01:23:42;;;;;;;7.37;6.67;;;18.30;99.90;;;;;;5031572;28;20478;-81
2022/05/17 01:26:30;;;;;;;9.00;8.10;;;18.20;99.90;;;;;;5031765;28;20418;-81
2022/05/17 01:29:14;;;;;;;9.90;9.00;;;18.20;99.90;;;;;;5031303;28;20414;-82
2022/05/17 01:31:59;;;;;;;9.90;8.70;;;18.30;99.90;;;;;;5030293;28;20403;-81
2022/05/17 01:34:45;;;;;;;13.03;8.20;;;18.30;99.90;;;;;;5032045;28;20392;-82
2022/05/17 01:37:32;;;;;;;11.53;8.03;;;18.30;99.90;;;;;;5017665;28;20426;-82
2022/05/17 01:40:17;;;;;;;9.63;8.63;;;18.30;99.90;;;;;;5037451;28;20415;-80
2022/05/17 01:43:01;;;;;;;11.67;9.40;;;18.30;99.90;;;;;;5058625;28;20389;-81
2022/05/17 01:45:46;;;;;;;14.50;9.13;;;18.30;99.90;;;;;;5098807;28;20453;-80
2022/05/17 01:48:31;;;;;;;12.47;8.00;;;18.30;99.90;;;;;;5079146;28;20469;-79
2022/05/17 01:51:16;;;;;;;9.47;8.57;;;18.20;99.90;;;;;;5092351;28;20458;-82
2022/05/17 01:54:00;;;;;;;10.27;9.17;;;18.30;99.90;;;;;;5077957;28;20396;-81
2022/05/17 01:56:46;;;;;;;10.60;8.10;;;18.30;99.90;;;;;;5092904;28;20469;-82
2022/05/17 01:59:32;;;;;;;8.47;7.50;;;18.30;99.90;;;;;;5063924;28;20404;-81
2022/05/17 02:02:17;;;;;;;8.80;8.00;;;18.30;99.90;;;;;;5090717;28;20472;-82
2022/05/17 02:05:02;;;;;;;10.73;9.30;;;18.20;99.90;;;;;;5091074;28;20468;-82
2022/05/17 02:07:50;;;;;;;11.73;10.50;;;18.30;99.90;;;;;;5077815;28;20377;-82
2022/05/17 02:10:36;;;;;;;9.60;8.60;;;18.30;99.90;;;;;;5078138;28;20392;-82
2022/05/17 02:13:21;;;;;;;10.47;9.03;;;18.20;99.90;;;;;;5064293;28;20401;-82
2022/05/17 02:16:07;;;;;;;9.73;8.73;;;18.20;99.90;;;;;;5093377;28;20415;-82
2022/05/17 02:18:51;;;;;;;11.43;9.67;;;18.10;99.90;;;;;;5078194;28;20404;-82
2022/05/17 02:21:39;;;;;;;10.60;9.50;;;18.00;99.90;;;;;;5093493;28;20417;-82
2022/05/17 02:24:27;;;;;;;16.50;9.10;;;18.00;99.90;;;;;;5093630;28;20489;-82
2022/05/17 02:27:12;;;;;;;16.60;8.63;;;18.00;99.90;;;;;;5079435;28;20384;-82
2022/05/17 02:29:57;;;;;;;10.03;8.93;;;17.90;99.90;;;;;;5078035;28;20385;-82
2022/05/17 02:32:42;;;;;;;11.10;9.27;;;17.90;99.90;;;;;;5091511;28;20409;-82
2022/05/17 02:35:26;;;;;;;10.07;9.03;;;17.90;99.90;;;;;;5091523;28;20485;-82
2022/05/17 02:38:11;;;;;;;10.63;9.53;;;17.80;99.90;;;;;;5094201;28;20412;-80
2022/05/17 02:40:56;;;;;;;10.13;9.23;;;17.90;99.90;;;;;;5053270;28;20414;-81
2022/05/17 02:43:41;;;;;;;9.53;8.20;;;17.80;99.90;;;;;;5055659;28;20450;-79
2022/05/17 02:46:30;;;;;;;9.90;8.70;;;17.80;99.90;;;;;;5042533;28;20389;-80
2022/05/17 02:49:16;;;;;;;11.60;9.47;;;17.90;99.90;;;;;;5042569;28;20410;-80
2022/05/17 02:52:03;;;;;;;12.50;8.93;;;17.90;99.90;;;;;;5055702;28;20402;-82
2022/05/17 02:54:48;;;;;;;9.57;8.63;;;17.80;99.90;;;;;;5056010;28;20470;-79
2022/05/17 02:57:36;;;;;;;9.10;8.27;;;17.80;99.90;;;;;;5055128;28;20426;-82
2022/05/17 03:00:21;;;;;;;10.90;9.07;;;17.80;99.90;;;;;;5054243;28;20502;-81
2022/05/17 03:03:08;;;;;;;10.93;9.20;;;17.80;99.90;;;;;;5034847;28;20415;-81
2022/05/17 03:05:54;;;;;;;10.83;8.53;;;17.80;99.90;;;;;;5034659;28;20474;-82
2022/05/17 03:08:39;;;;;;;11.77;9.17;;;17.70;99.90;;;;;;5030571;28;20380;-81
2022/05/17 03:11:23;;;;;;;13.23;9.17;;;17.80;99.90;;;;;;5048228;28;20413;-81
2022/05/17 03:14:11;;;;;;;9.90;8.87;;;17.70;99.90;;;;;;5074746;28;20427;-81
2022/05/17 03:16:55;;;;;;;10.33;9.23;;;17.70;99.90;;;;;;5059907;28;20413;-81
2022/05/17 03:19:42;;;;;;;10.17;9.27;;;17.70;99.90;;;;;;5073885;28;20390;-81
2022/05/17 03:22:28;;;;;;;15.13;9.90;;;17.60;99.90;;;;;;5073766;28;20506;-81
2022/05/17 03:25:14;;;;;;;10.30;8.60;;;17.60;99.90;;;;;;5073015;28;20445;-81
2022/05/17 03:27:59;;;;;;;10.90;9.30;;;17.50;99.90;;;;;;5059059;28;20414;-81
2022/05/17 03:30:44;;;;;;;15.83;9.53;;;17.50;99.90;;;;;;5072642;28;20390;-81
2022/05/17 03:33:29;;;;;;;9.60;8.47;;;17.40;99.90;;;;;;5080780;28;20481;-81
2022/05/17 03:36:14;;;;;;;15.10;9.90;;;17.40;99.90;;;;;;5094481;28;20381;-81
2022/05/17 03:38:58;;;;;;;13.70;8.73;;;17.40;99.90;;;;;;5093653;28;20393;-81
2022/05/17 03:41:43;;;;;;;9.23;8.40;;;17.40;99.90;;;;;;5065015;28;20397;-81
2022/05/17 03:44:28;;;;;;;13.10;9.57;;;17.40;99.90;;;;;;5093612;28;20918;-81
2022/05/17 03:47:14;;;;;;;10.27;9.27;;;17.30;99.90;;;;;;5083642;28;20496;-82
2022/05/17 03:49:59;;;;;;;11.50;8.50;;;17.30;99.90;;;;;;5072479;28;20436;-81
2022/05/17 03:52:44;;;;;;;11.93;9.70;;;17.30;99.90;;;;;;5098081;28;20408;-82
2022/05/17 03:55:29;;;;;;;11.17;9.97;;;17.30;99.90;;;;;;5095463;28;20540;-81
2022/05/17 03:58:15;;;;;;;10.70;9.60;;;17.20;99.90;;;;;;5079175;28;20384;-81
2022/05/17 04:01:02;;;;;;;12.33;10.13;;;17.30;99.90;;;;;;5094590;28;20420;-80
2022/05/17 04:03:46;;;;;;;13.50;10.33;;;17.30;99.90;;;;;;5093991;28;20452;-81
2022/05/17 04:06:31;;;;;;;11.37;10.07;;;17.30;99.90;;;;;;5094275;28;20397;-82
2022/05/17 04:09:17;;;;;;;10.20;9.20;;;17.30;99.90;;;;;;5095343;28;20407;-82
2022/05/17 04:12:03;;;;;;;16.70;10.23;;;17.40;99.90;;;;;;5080492;28;20403;-80
2022/05/17 04:14:48;;;;;;;10.43;8.63;;;17.40;99.90;;;;;;5093025;28;20385;-81
2022/05/17 04:17:32;;;;;;;11.20;8.80;;;17.40;99.90;;;;;;5075523;28;20424;-81
2022/05/17 04:20:18;;;;;;;13.30;8.60;;;17.40;99.90;;;;;;5067400;28;20417;-81
2022/05/17 04:23:03;;;;;;;9.10;8.20;;;17.40;99.90;;;;;;5070847;28;20392;-81
2022/05/17 04:25:48;;;;;;;10.27;9.00;;;17.40;99.90;;;;;;5099591;28;20389;-82
2022/05/17 04:28:37;;;;;;;12.53;10.57;;;17.50;99.90;;;;;;5099412;28;20413;-82
2022/05/17 04:31:22;;;;;;;10.07;9.07;;;17.50;99.90;;;;;;5065185;28;20463;-81
2022/05/17 04:34:07;;;;;;;10.40;9.30;;;17.40;99.90;;;;;;5078096;28;20409;-81
2022/05/17 04:36:52;;;;;;;11.60;8.87;;;17.40;99.90;;;;;;5093240;28;20440;-81
2022/05/17 04:39:37;;;;;;;11.23;10.00;;;17.50;99.90;;;;;;5084579;28;20393;-82
2022/05/17 04:42:22;;;;;;;15.60;10.80;;;17.40;99.90;;;;;;5098755;28;20397;-81
2022/05/17 04:45:09;;;;;;;15.87;14.00;;;17.30;99.90;;;;;;5098951;28;20456;-81
2022/05/17 04:47:54;;;;;;;17.00;11.43;;;17.30;99.90;;;;;;5099056;28;20404;-81
2022/05/17 04:50:38;;;;;;;12.40;11.10;;;17.30;99.90;;;;;;5096623;28;20595;-82
2022/05/17 04:53:23;;;;;;;17.40;15.03;;;17.30;99.90;;;;;;5053377;28;20431;-80
2022/05/17 04:56:08;;;;;;;15.83;12.80;;;17.30;99.90;;;;;;5099000;28;20429;-82
2022/05/17 04:58:53;;;;;;;12.00;10.80;;;17.30;99.90;;;;;;5097142;28;20424;-79
2022/05/17 05:01:38;;;;;;;13.60;12.20;;;17.30;99.90;;;;;;5099249;28;20448;-81
2022/05/17 05:04:23;;;;;;;12.80;10.93;;;17.30;99.90;;;;;;5072652;28;20518;-82
2022/05/17 05:07:10;;;;;;;14.60;11.77;;;17.30;99.90;;;;;;5059175;28;20410;-81
2022/05/17 05:09:55;;;;;;;13.47;12.07;;;17.30;99.90;;;;;;5057793;28;20422;-82
2022/05/17 05:12:40;;;;;;;16.37;13.27;;;17.40;99.90;;;;;;5056810;28;20512;-81
2022/05/17 05:15:25;;;;;;;14.73;12.43;;;17.50;99.90;;;;;;5053449;28;20440;-82
2022/05/17 05:18:10;;;;;;;15.60;11.50;;;17.50;99.90;;;;;;5058115;28;20403;-81
2022/05/17 05:21:09;;;;;;;13.47;11.50;;;17.60;99.90;;;;;;5050004;28;20431;-81
2022/05/17 05:23:55;;;;;;;12.40;11.10;;;17.60;99.90;;;;;;5038020;28;20487;-81
2022/05/17 05:26:39;;;;;;;15.20;11.20;;;17.70;99.90;;;;;;5037621;28;20423;-81
2022/05/17 05:29:24;;;;;;;11.77;10.43;;;17.70;99.90;;;;;;5050985;28;20446;-81
2022/05/17 05:32:11;;;;;;;12.60;10.80;;;17.80;99.90;;;;;;5053461;28;20478;-81
2022/05/17 05:34:59;;;;;;;20.03;13.40;;;17.90;99.90;;;;;;5040131;28;20461;-82
2022/05/17 05:37:44;;;;;;;14.97;11.80;;;18.00;99.90;;;;;;5038035;28;20438;-81
2022/05/17 05:40:28;;;;;;;13.13;11.03;;;18.10;99.90;;;;;;5052927;28;20411;-81
2022/05/17 05:43:15;;;;;;;14.50;9.27;;;18.10;99.90;;;;;;5050729;28;20442;-80
2022/05/17 05:46:00;;;;;;;12.97;11.63;;;18.20;99.90;;;;;;5037585;28;20598;-82
2022/05/17 05:48:44;;;;;;;14.87;11.47;;;18.20;99.90;;;;;;5045029;28;20417;-83
2022/05/17 05:51:31;;;;;;;15.50;11.17;;;18.30;99.90;;;;;;5040573;28;20506;-81
2022/05/17 05:54:17;;;;;;;12.83;10.67;;;18.30;99.90;;;;;;5042189;28;20433;-82
2022/05/17 05:57:02;;;;;;;13.00;11.53;;;18.40;99.90;;;;;;5048526;28;20477;-83
2022/05/17 05:59:47;;;;;;;16.90;11.73;;;18.50;99.90;;;;;;5048583;28;20426;-83
2022/05/17 06:02:32;;;;;;;12.00;10.80;;;18.60;99.90;;;;;;5033881;28;20503;-82
2022/05/17 06:05:18;;;;;;;16.50;10.50;;;18.70;99.90;;;;;;5033871;28;20478;-83
2022/05/17 06:08:04;;;;;;;13.80;11.60;;;18.70;99.90;;;;;;5047366;28;20492;-83
2022/05/17 06:10:54;;;;;;;14.30;11.47;;;18.80;99.90;;;;;;4994763;28;20444;-83
2022/05/17 06:13:39;;;;;;;11.77;10.60;;;18.90;99.90;;;;;;4980715;28;20601;-81
2022/05/17 06:16:43;;;;;;;11.60;10.47;;;19.00;99.90;;;;;;5020995;28;20471;-81
2022/05/17 06:19:30;;;;;;;11.87;10.67;;;19.00;99.90;;;;;;4987409;28;20455;-79
2022/05/17 06:22:15;;;;;;;13.50;11.77;;;19.10;99.90;;;;;;4992726;28;20425;-81
2022/05/17 06:25:00;;;;;;;13.00;11.70;;;19.10;99.90;;;;;;5009213;28;20531;-80
2022/05/17 06:27:44;;;;;;;14.47;11.03;;;19.10;99.90;;;;;;5009557;28;20562;-80
2022/05/17 06:30:29;;;;;;;13.70;12.00;;;19.10;99.90;;;;;;5014650;28;20439;-82
2022/05/17 06:33:15;;;;;;;14.13;12.63;;;19.10;99.90;;;;;;4974978;28;20525;-81
2022/05/17 06:36:00;;;;;;;16.27;12.60;;;19.10;99.90;;;;;;5009257;28;20436;-82
2022/05/17 06:38:45;;;;;;;12.90;11.60;;;19.10;99.90;;;;;;5005269;28;20494;-80
2022/05/17 06:41:30;;;;;;;14.80;12.97;;;19.20;99.90;;;;;;4991659;28;20478;-81
2022/05/17 06:44:16;;;;;;;15.37;12.40;;;19.30;99.90;;;;;;5048850;28;20469;-81
2022/05/17 06:47:01;;;;;;;18.23;12.40;;;19.50;99.90;;;;;;5038363;28;20891;-82
2022/05/17 06:49:46;;;;;;;16.80;14.23;;;19.70;99.90;;;;;;5029939;28;20449;-82
2022/05/17 06:52:50;;;;;;;14.80;13.30;;;19.70;99.90;;;;;;5037404;28;20445;-82
2022/05/17 06:55:38;;;;;;;19.43;15.50;;;19.80;99.90;;;;;;5047025;28;20477;-81
2022/05/17 06:58:23;;;;;;;17.10;13.33;;;19.90;99.90;;;;;;5033536;28;20540;-81
2022/05/17 07:01:10;;;;;;;17.37;12.90;;;20.00;99.90;;;;;;5048044;28;20429;-82
2022/05/17 07:04:34;;;;;;;16.03;13.23;;;20.00;99.90;;;;;;5021715;28;20561;-81
2022/05/17 07:07:19;;;;;;;21.77;13.40;;;20.00;99.90;;;;;;4964115;28;20441;-82
2022/05/17 07:13:13;;;;;;;15.87;14.27;;;19.70;99.90;;;;;;4977365;28;20499;-82
2022/05/17 07:15:59;;;;;;;16.93;14.23;;;19.70;99.90;;;;;;4980075;28;20487;-81
2022/05/17 07:18:44;;;;;;;17.93;16.03;;;19.70;99.90;;;;;;4932783;28;20491;-82
2022/05/17 07:21:28;;;;;;;19.53;15.90;;;19.80;99.90;;;;;;4948888;28;20448;-83
2022/05/17 07:24:13;;;;;;;17.83;14.57;;;19.80;99.90;;;;;;4974525;28;20539;-84
2022/05/17 07:27:02;;;;;;;19.60;16.13;;;19.90;99.90;;;;;;4959123;28;20457;-84
2022/05/17 07:29:48;;;;;;;21.17;15.77;;;19.90;99.90;;;;;;4972808;28;20804;-82
2022/05/17 07:32:36;;;;;;;19.10;16.13;;;19.90;99.90;;;;;;4970728;28;20448;-84
2022/05/17 07:35:20;;;;;;;19.60;15.87;;;19.90;99.90;;;;;;4973828;28;20519;-85
2022/05/17 07:38:06;;;;;;;18.03;14.20;;;19.90;99.90;;;;;;5033009;28;20429;-85
2022/05/17 07:40:51;;;;;;;19.53;14.20;;;19.90;99.90;;;;;;5065384;28;20449;-83
2022/05/17 07:43:36;;;;;;;25.20;15.53;;;20.00;99.90;;;;;;5057622;28;20624;-85
2022/05/17 07:46:20;;;;;;;17.80;13.67;;;20.00;99.90;;;;;;5061077;28;20931;-84
2022/05/17 07:49:06;;;;;;;17.53;15.70;;;20.10;99.90;;;;;;5060206;28;20449;-83
2022/05/17 07:51:54;;;;;;;16.80;14.00;;;20.10;99.90;;;;;;5050923;28;20445;-85
2022/05/17 07:54:43;;;;;;;14.77;13.07;;;20.20;99.90;;;;;;5050673;28;20960;-85
2022/05/17 07:57:28;;;;;;;26.20;16.37;;;20.20;99.90;;;;;;5046194;28;20457;-84
2022/05/17 08:00:13;;;;;;;19.33;15.60;;;20.30;99.90;;;;;;5049120;28;20448;-83
2022/05/17 08:03:00;;;;;;;17.47;14.10;;;20.50;99.90;;;;;;5051797;28;20425;-80
2022/05/17 08:05:44;;;;;;;21.53;15.13;;;20.50;99.90;;;;;;5018799;28;21084;-82
2022/05/17 08:08:29;;;;;;;21.90;15.67;;;20.70;99.90;;;;;;5059357;28;20424;-81
2022/05/17 08:11:13;;;;;;;22.90;16.10;;;20.60;99.90;;;;;;5043313;28;20445;-83
2022/05/17 08:14:00;;;;;;;20.20;13.67;;;20.60;99.90;;;;;;5062443;28;20852;-83
2022/05/17 08:16:45;;;;;;;17.63;13.63;;;20.60;99.90;;;;;;5048110;28;20420;-82
2022/05/17 08:19:50;;;;;;;16.57;12.97;;;20.60;99.90;;;;;;5056646;28;20477;-84
2022/05/17 08:22:56;;;;;;;16.70;12.53;;;20.60;99.90;;;;;;5009622;28;20431;-83
2022/05/17 08:28:57;;;;;;;19.80;14.20;;;20.70;99.90;;;;;;4860738;29;20496;-83
2022/05/17 08:31:42;;;;;;;14.27;12.73;;;20.60;99.90;;;;;;4843820;29;20556;-82
2022/05/17 08:34:26;;;;;;;15.93;12.43;;;20.80;99.90;;;;;;4856537;29;20531;-82
2022/05/17 08:37:11;;;;;;;17.63;12.40;;;21.10;99.90;;;;;;4854463;29;20476;-82
2022/05/17 08:39:56;;;;;;;16.50;13.00;;;21.10;99.90;;;;;;4858774;29;20469;-83
2022/05/17 08:43:03;;;;;;;14.73;12.40;;;21.20;99.90;;;;;;4847541;29;20439;-83
2022/05/17 08:46:10;;;;;;;13.20;10.50;;;21.20;99.90;;;;;;4858495;29;20480;-82
2022/05/17 08:49:35;;;;;;;13.20;11.30;;;21.20;99.90;;;;;;4860065;29;20616;-84
2022/05/17 08:52:25;;;;;;;13.37;11.90;;;21.20;99.90;;;;;;4809981;29;20453;-84
2022/05/17 08:55:26;;;;;;;12.97;11.23;;;21.30;99.90;;;;;;4837395;29;20588;-83
2022/05/17 08:58:21;;;;;;;16.60;11.93;;;21.40;99.90;;;;;;4858021;29;20492;-82
2022/05/17 09:01:19;;;;;;;16.10;11.17;;;21.60;99.90;;;;;;4932398;29;20500;-83
2022/05/17 09:04:37;;;;;;;14.13;12.17;;;21.60;99.90;;;;;;4953648;28;20499;-82
2022/05/17 09:07:35;;;;;;;12.83;11.53;;;21.70;99.90;;;;;;4962385;28;20486;-82
2022/05/17 09:10:36;;;;;;;11.83;10.03;;;21.90;99.90;;;;;;4953459;28;20476;-79
2022/05/17 09:13:28;;;;;;;10.93;8.13;;;22.10;99.90;;;;;;4950000;28;20434;-81
2022/05/17 09:16:14;;;;;;;10.40;9.50;;;21.80;99.90;;;;;;4954521;28;20495;-82
2022/05/17 09:19:05;;;;;;;12.60;10.40;;;21.90;99.90;;;;;;4914554;28;20520;-81
2022/05/17 09:21:50;;;;;;;12.80;9.23;;;21.80;99.90;;;;;;4956773;28;20486;-82
2022/05/17 09:24:39;;;;;;;12.70;9.10;;;21.70;99.90;;;;;;4992258;28;20465;-83
2022/05/17 09:27:37;;;;;;;16.23;9.97;;;21.70;99.90;;;;;;5011232;28;20468;-82
2022/05/17 09:30:32;;;;;;;15.43;7.67;;;21.70;99.90;;;;;;5010579;28;20439;-82
2022/05/17 09:33:21;;;;;;;9.23;8.33;;;21.60;99.90;;;;;;5006258;28;20803;-82
2022/05/17 09:36:08;;;;;;;10.47;8.80;;;21.50;99.90;;;;;;4996188;28;20420;-82
2022/05/17 09:38:54;;;;;;;8.93;7.40;;;21.80;99.90;;;;;;5006180;28;20471;-82
2022/05/17 09:41:42;;;;;;;10.10;8.77;;;22.00;99.90;;;;;;5013053;28;20431;-82
2022/05/17 09:44:30;;;;;;;7.53;6.77;;;22.20;99.90;;;;;;5011587;28;20451;-81
2022/05/17 09:47:40;;;;;;;6.30;5.47;;;22.50;99.90;;;;;;4984819;28;20432;-83
2022/05/17 09:53:37;;;;;;;6.63;5.00;;;22.80;99.90;;;;;;4928800;29;20438;-80
2022/05/17 09:56:27;;;;;;;6.00;5.33;;;22.80;99.90;;;;;;4943708;28;20465;-82
2022/05/17 09:59:22;;;;;;;6.17;5.67;;;23.10;99.90;;;;;;4933706;28;20484;-82
2022/05/17 10:02:34;;;;;;;14.73;5.70;;;23.10;99.90;;;;;;4955002;28;20472;-81
2022/05/17 10:05:25;;;;;;;9.10;5.63;;;22.80;99.90;;;;;;4962699;28;20493;-81
2022/05/17 10:08:30;;;;;;;3.60;3.40;;;22.70;99.90;;;;;;4990833;28;20456;-83
2022/05/17 10:11:18;;;;;;;4.73;4.33;;;22.60;99.90;;;;;;4962167;28;20900;-82
2022/05/17 10:14:15;;;;;;;4.53;3.60;;;22.50;99.90;;;;;;4968790;28;20444;-84
2022/05/17 10:17:10;;;;;;;4.80;4.40;;;22.80;99.90;;;;;;4967408;28;20443;-84
2022/05/17 10:20:17;;;;;;;5.57;3.90;;;23.10;99.90;;;;;;4983514;28;20560;-83
2022/05/17 10:23:09;;;;;;;3.37;3.17;;;23.40;99.90;;;;;;5028327;28;20427;-82
2022/05/17 10:26:02;;;;;;;6.10;3.10;;;23.50;99.90;;;;;;5011122;28;20503;-81
2022/05/17 10:28:57;;;;;;;4.23;2.87;;;23.60;99.90;;;;;;5008750;28;20575;-82
2022/05/17 10:32:01;;;;;;;6.20;3.27;;;23.90;99.90;;;;;;5013308;28;20565;-80
2022/05/17 10:35:10;;;;;;;3.07;2.87;;;24.10;99.90;;;;;;5008069;28;20479;-80
2022/05/17 10:38:04;;;;;;;3.03;2.83;;;24.20;99.90;;;;;;4981942;28;20572;-81
2022/05/17 10:40:56;;;;;;;6.50;5.50;;;24.60;99.90;;;;;;4954796;28;20590;-80
2022/05/17 10:43:44;;;;;;;6.57;4.87;;;24.70;99.90;;;;;;4961859;28;20474;-81
2022/05/17 10:46:33;;;;;;;5.73;4.37;;;24.70;99.90;;;;;;4959188;28;20442;-80
2022/05/17 10:49:35;;;;;;;5.87;4.07;;;24.40;99.90;;;;;;4920587;29;20480;-82
2022/05/17 10:52:33;;;;;;;6.10;4.17;;;24.50;99.90;;;;;;4917595;29;20463;-83
2022/05/17 10:55:30;;;;;;;4.77;3.87;;;24.20;99.90;;;;;;4960869;29;20458;-84
2022/05/17 10:58:28;;;;;;;5.23;4.73;;;24.20;99.90;;;;;;4990311;28;20460;-85
2022/05/17 11:01:22;;;;;;;5.87;4.37;;;24.30;99.90;;;;;;4991144;28;20591;-84
2022/05/17 11:04:28;;;;;;;4.80;4.00;;;24.10;99.90;;;;;;4993760;28;20504;-83
2022/05/17 11:07:23;;;;;;;3.00;2.80;;;23.70;99.90;;;;;;4980397;28;20452;-83
2022/05/17 11:10:32;;;;;;;8.60;3.40;;;23.80;99.90;;;;;;4980760;28;20444;-84
2022/05/17 11:13:36;;;;;;;4.10;3.53;;;23.80;99.90;;;;;;5003698;28;20404;-85
2022/05/17 11:16:38;;;;;;;6.87;3.10;;;24.40;99.90;;;;;;4990751;28;20495;-84
2022/05/17 11:19:34;;;;;;;4.07;3.60;;;24.60;99.90;;;;;;5002106;28;20477;-87
2022/05/17 11:22:33;;;;;;;4.83;2.90;;;24.60;99.90;;;;;;5002966;28;20578;-82
2022/05/17 11:25:44;;;;;;;3.60;3.30;;;25.40;99.90;;;;;;4969377;28;20460;-85
2022/05/17 11:28:53;;;;;;;5.17;3.97;;;25.30;99.90;;;;;;4996023;28;20461;-86
2022/05/17 11:31:55;;;;;;;3.73;3.43;;;25.30;99.90;;;;;;4994785;28;20503;-86
2022/05/17 11:34:43;;;;;;;6.10;4.60;;;25.70;99.90;;;;;;4967245;28;20465;-84
2022/05/17 11:37:46;;;;;;;4.30;4.00;;;26.10;99.90;;;;;;4987124;28;20443;-85
2022/05/17 11:40:50;;;;;;;5.47;4.37;;;26.30;99.90;;;;;;4993591;28;20446;-85
2022/05/17 11:44:15;;;;;;;2.70;2.50;;;26.60;99.90;;;;;;4993013;28;20480;-85
2022/05/17 11:47:05;;;;;;;4.23;2.90;;;27.00;99.90;;;;;;4963395;28;20457;-85
2022/05/17 11:49:50;;;;;;;3.17;2.67;;;27.00;99.90;;;;;;4941920;29;20437;-84
2022/05/17 11:52:38;;;;;;;2.93;2.63;;;26.60;99.80;;;;;;4921152;29;21065;-84
2022/05/17 11:55:28;;;;;;;3.47;3.13;;;26.10;99.90;;;;;;4926191;28;21014;-84
2022/05/17 11:58:28;;;;;;;3.70;2.57;;;26.30;99.90;;;;;;4969521;28;20472;-85
2022/05/17 12:01:43;;;;;;;3.50;3.00;;;26.60;98.70;;;;;;4943234;28;20481;-85
2022/05/17 12:04:42;;;;;;;3.20;3.00;;;27.20;98.40;;;;;;4956454;28;20551;-85
2022/05/17 12:07:30;;;;;;;3.70;2.90;;;26.20;98.50;;;;;;4964824;28;20482;-86
2022/05/17 12:10:16;;;;;;;3.00;2.70;;;27.30;96.70;;;;;;4948969;28;20479;-86
2022/05/17 12:13:08;;;;;;;3.27;2.97;;;28.20;93.30;;;;;;4930967;28;20445;-85
2022/05/17 12:15:53;;;;;;;3.20;2.90;;;28.50;91.80;;;;;;4940058;28;20433;-83
2022/05/17 12:18:43;;;;;;;3.43;3.13;;;28.60;91.70;;;;;;4979634;28;20476;-85
2022/05/17 12:21:42;;;;;;;3.03;2.70;;;29.60;89.90;;;;;;5028295;28;20509;-86
2022/05/17 12:24:41;;;;;;;5.57;2.67;;;30.10;87.00;;;;;;5022991;28;20349;-85
2022/05/17 12:27:31;;;;;;;2.60;2.40;;;29.90;85.60;;;;;;5020535;28;20210;-85
2022/05/17 12:33:45;;;;;;;5.75;3.10;;;29.90;82.50;;;;;;5033473;28;20190;-87
2022/05/17 12:36:31;;;;;;;3.03;2.83;;;30.30;78.30;;;;;;5022333;28;20643;-86
2022/05/17 12:45:24;;;;;;;3.97;2.53;;;31.40;77.40;;;;;;5022432;28;20291;-83
2022/05/17 12:48:17;;;;;;;2.65;2.35;;;30.60;77.20;;;;;;5020369;28;20183;-83
2022/05/17 12:51:06;;;;;;;4.90;2.90;;;30.30;76.50;;;;;;5014505;28;20206;-84
2022/05/17 12:53:53;;;;;;;2.67;2.45;;;29.50;77.20;;;;;;5034962;28;20237;-84
2022/05/17 12:56:43;;;;;;;2.95;2.53;;;30.10;75.00;;;;;;5024258;28;20217;-85
2022/05/17 12:59:32;;;;;;;2.50;2.30;;;29.80;76.90;;;;;;5042347;28;20210;-85
2022/05/17 13:02:23;;;;;;;3.35;2.85;;;29.70;77.50;;;;;;5011190;28;20183;-84
2022/05/17 13:05:36;;;;;;;2.58;2.38;;;29.10;78.70;;;;;;5016350;28;20281;-84
2022/05/17 13:08:32;;;;;;;4.70;2.87;;;25.90;81.10;;;;;;5021911;28;20238;-84
2022/05/17 13:11:26;;;;;;;4.30;3.90;;;25.50;85.80;;;;;;5011091;28;20589;-85
2022/05/17 13:14:27;;;;;;;4.00;2.60;;;25.80;89.20;;;;;;5025315;28;20430;-85
2022/05/17 13:17:18;;;;;;;3.37;2.83;;;26.50;88.80;;;;;;5025614;28;20506;-85
2022/05/17 13:20:19;;;;;;;2.80;2.60;;;26.70;84.60;;;;;;5022121;28;20447;-84
2022/05/17 13:23:06;;;;;;;4.30;2.70;;;26.70;90.10;;;;;;5024917;28;20444;-85
2022/05/17 13:25:55;;;;;;;3.53;2.63;;;27.40;84.80;;;;;;5028608;28;20489;-86
2022/05/17 13:28:40;;;;;;;2.80;2.17;;;28.60;82.40;;;;;;5032815;28;20443;-85
2022/05/17 13:31:28;;;;;;;3.47;2.43;;;29.70;79.70;;;;;;5016470;28;20481;-85
2022/05/17 13:34:17;;;;;;;4.05;2.50;;;30.40;75.00;;;;;;5036993;28;20179;-84
2022/05/17 13:37:09;;;;;;;2.45;2.33;;;29.30;74.00;;;;;;5034877;28;20182;-87
2022/05/17 13:40:02;;;;;;;4.07;2.63;;;30.00;74.10;;;;;;5020759;28;20231;-84
2022/05/17 13:42:54;;;;;;;4.43;1.92;;;30.70;73.00;;;;;;5043427;28;20238;-86
2022/05/17 13:46:04;;;;;;;3.22;2.92;;;30.80;71.40;;;;;;5030324;28;20353;-85
2022/05/17 13:48:58;;;;;;;2.30;2.10;;;31.00;70.40;;;;;;4988517;28;20228;-85
2022/05/17 13:51:59;;;;;;;2.20;2.10;;;31.20;67.70;;;;;;4989419;28;20239;-84
2022/05/17 13:54:49;;;;;;;3.60;3.30;;;31.40;68.80;;;;;;4998271;28;20216;-84
2022/05/17 13:57:37;;;;;;;2.35;2.15;;;31.30;67.00;;;;;;4981595;28;20199;-85
2022/05/17 14:00:27;;;;;;;3.17;2.25;;;31.00;67.80;;;;;;4998833;28;20232;-85
2022/05/17 14:03:21;;;;;;;2.20;2.00;;;31.00;66.60;;;;;;5006322;28;20307;-84
2022/05/17 14:06:15;;;;;;;4.85;2.50;;;31.20;69.10;;;;;;4988721;28;20205;-83
2022/05/17 14:12:07;;;;;;;3.80;2.50;;;30.70;67.60;;;;;;4990929;28;20351;-85
2022/05/17 14:14:54;;;;;;;3.08;2.78;;;31.00;69.00;;;;;;4992906;28;20224;-83
2022/05/17 14:17:38;;;;;;;4.47;2.42;;;31.10;70.70;;;;;;4999212;28;20192;-84
2022/05/17 14:20:23;;;;;;;2.80;2.60;;;30.50;68.30;;;;;;4995545;28;20200;-84
2022/05/17 14:23:08;;;;;;;2.85;2.53;;;30.10;70.80;;;;;;4985145;28;20623;-84
2022/05/17 14:25:53;;;;;;;3.03;2.65;;;30.30;70.00;;;;;;4997095;28;20231;-85
2022/05/17 14:28:38;;;;;;;3.03;2.72;;;30.00;69.30;;;;;;4985363;28;21144;-82
2022/05/17 14:31:26;;;;;;;4.20;2.55;;;30.30;70.20;;;;;;4994866;28;20197;-84
2022/05/17 14:34:14;;;;;;;2.85;2.65;;;30.40;68.80;;;;;;4973955;28;20279;-85
2022/05/17 14:36:59;;;;;;;3.43;2.60;;;29.50;71.50;;;;;;4968932;28;20199;-82
2022/05/17 14:39:43;;;;;;;10.50;2.57;;;29.00;73.00;;;;;;4978946;28;20192;-84
2022/05/17 14:42:28;;;;;;;9.90;3.03;;;29.30;72.00;;;;;;5000471;28;20700;-84
2022/05/17 14:45:14;;;;;;;2.90;2.03;;;29.30;71.70;;;;;;4998279;28;20462;-84
2022/05/17 14:48:02;;;;;;;7.60;2.97;;;29.00;70.00;;;;;;4985312;28;20228;-84
2022/05/17 14:50:47;;;;;;;4.00;2.30;;;28.70;72.20;;;;;;5004417;28;20477;-83
2022/05/17 14:53:31;;;;;;;4.57;2.80;;;28.60;72.70;;;;;;5023628;28;20445;-82
2022/05/17 14:56:16;;;;;;;3.00;2.70;;;28.90;74.30;;;;;;5030477;28;20552;-83
2022/05/17 14:59:02;;;;;;;2.80;2.13;;;28.90;72.80;;;;;;5049093;28;20492;-82